Main page
METAR-TAF:

METAR-TAF

Airports :

Nancy – Ochey Air Base

Nancy, France

latitude: 48-35N, longitude: 005-58E, elevation: 336 m

Current weather observation

The report was made 41 minutes ago, at 08:00 UTC
Wind 6 kt from the Southwest
Temperature 4°C
Humidity 75%
Pressure 1017 hPa
Visibility 10 km or more
no clouds below 1500 m and no cumulonimbus

METAR: LFSO 030800Z AUTO 22006KT CAVOK 04/M00 Q1017

Time: 10:41 (08:41 UTC)

Forecast

The report was made 3 hours and 56 minutes ago, at 04:45 UTC
Forecast valid from 03 at 04 UTC to 04 at 03 UTC
Wind 8 kt from the South/Southwest
Visibility 10 km or more
Broken clouds at a height of 4000 ft
Becoming
from 03 at 08 UTC to 03 at 10 UTC
Wind 10 kt from the West/Northwest
Becoming
from 03 at 19 UTC to 03 at 21 UTC
Wind 2 kt from variable directions

TAF: LFSO 030445Z 0304/0403 21008KT 9999 BKN040 BECMG 0308/0310 30010KT BECMG 0319/0321 VRB02KT

Weather observations and forecasts of more than 4000 airports (METAR and TAF reports).

The available stations are represented by yellow and red dots on the map.

Hover mouse over dot to see the name of the station.

Then click to see weather observations and forecasts.

To change the map : click on the green buttons with a black cross to zoom in, on the green button with a dash to zoom out, or on the green arrows for adjacent maps.


METAR-TAF: